createdAt,value
2018-07-09T00:02:16.699Z,21.00
2018-07-09T00:04:46.026Z,21.00
2018-07-09T00:07:15.465Z,20.90
2018-07-09T00:09:45.040Z,20.90
2018-07-09T00:12:14.461Z,20.80
2018-07-09T00:14:43.845Z,20.70
2018-07-09T00:17:13.343Z,20.60
2018-07-09T00:22:11.579Z,20.40
2018-07-09T00:24:41.009Z,20.40
2018-07-09T00:32:08.186Z,20.20
2018-07-09T00:34:37.576Z,20.20
2018-07-09T00:37:07.001Z,20.10
2018-07-09T00:39:36.442Z,20.10
2018-07-09T00:42:05.991Z,20.00
2018-07-09T00:44:35.294Z,19.90
2018-07-09T00:49:33.644Z,19.80
2018-07-09T00:52:03.088Z,19.80
2018-07-09T00:54:32.536Z,19.70
2018-07-09T00:57:02.036Z,19.80
2018-07-09T00:59:31.457Z,19.70
2018-07-09T01:02:01.819Z,19.60
2018-07-09T01:04:31.209Z,19.60
2018-07-09T01:07:00.615Z,19.50
2018-07-09T01:09:29.909Z,19.50
2018-07-09T01:12:10.936Z,19.50
2018-07-09T01:14:40.963Z,19.40
2018-07-09T01:17:10.328Z,19.40
2018-07-09T01:22:08.619Z,19.30
2018-07-09T01:27:06.854Z,19.30
2018-07-09T01:29:36.386Z,19.20
2018-07-09T01:32:05.742Z,19.20
2018-07-09T01:34:35.288Z,19.20
2018-07-09T01:37:04.782Z,19.20
2018-07-09T01:42:03.982Z,19.20
2018-07-09T01:44:33.388Z,19.20
2018-07-09T01:47:02.715Z,19.20
2018-07-09T01:49:32.376Z,19.20
2018-07-09T01:52:02.283Z,19.10
2018-07-09T01:59:29.414Z,19.10
2018-07-09T02:01:58.869Z,19.10
2018-07-09T02:04:28.254Z,19.10
2018-07-09T02:09:26.598Z,18.90
2018-07-09T02:11:56.608Z,18.90
2018-07-09T02:14:25.938Z,18.80
2018-07-09T02:16:55.292Z,18.80
2018-07-09T02:19:25.483Z,18.80
2018-07-09T02:29:21.608Z,18.70
2018-07-09T02:31:50.988Z,18.60
2018-07-09T02:34:20.405Z,18.60
2018-07-09T02:36:49.852Z,18.50
2018-07-09T02:39:19.178Z,18.50
2018-07-09T02:46:46.294Z,18.40
2018-07-09T02:49:15.707Z,18.40
2018-07-09T02:51:44.988Z,18.30
2018-07-09T02:54:14.508Z,18.30
2018-07-09T02:56:43.854Z,18.30
2018-07-09T02:59:13.196Z,18.20
2018-07-09T03:01:42.637Z,18.20
2018-07-09T03:04:11.992Z,18.20
2018-07-09T03:06:41.421Z,18.10
2018-07-09T03:09:10.793Z,18.10
2018-07-09T03:11:40.085Z,18.10
2018-07-09T03:14:09.465Z,18.10
2018-07-09T03:21:36.599Z,17.90
2018-07-09T03:24:06.102Z,17.90
2018-07-09T03:26:35.637Z,17.90
2018-07-09T03:29:05.166Z,17.80
2018-07-09T03:34:03.657Z,17.80
2018-07-09T03:36:33.251Z,17.70
2018-07-09T03:39:02.728Z,17.70
2018-07-09T03:41:32.065Z,17.70
2018-07-09T03:46:30.356Z,17.70
2018-07-09T03:51:30.313Z,17.70
2018-07-09T03:53:59.666Z,17.70
2018-07-09T03:56:29.777Z,17.70
2018-07-09T03:58:59.179Z,17.70
2018-07-09T04:01:29.100Z,17.60
2018-07-09T04:03:58.441Z,17.60
2018-07-09T04:06:28.293Z,17.60
2018-07-09T04:11:27.174Z,17.70
2018-07-09T04:13:57.166Z,17.70
2018-07-09T04:18:55.568Z,17.80
2018-07-09T04:21:25.418Z,17.90
2018-07-09T04:23:55.873Z,17.90
2018-07-09T04:26:25.242Z,17.90
2018-07-09T04:28:54.579Z,17.90
2018-07-09T04:31:23.859Z,18.00
2018-07-09T04:33:53.304Z,18.00
2018-07-09T04:36:22.808Z,18.10
2018-07-09T04:41:21.175Z,18.20
2018-07-09T04:43:50.690Z,18.20
2018-07-09T04:46:20.641Z,18.20
2018-07-09T04:48:50.697Z,18.20
2018-07-09T04:51:20.110Z,18.00
2018-07-09T04:53:49.450Z,17.90
2018-07-09T04:56:18.900Z,17.80
2018-07-09T04:58:48.212Z,17.80
2018-07-09T05:03:46.524Z,17.90
2018-07-09T05:06:15.881Z,17.90
2018-07-09T05:08:45.134Z,17.80
2018-07-09T05:16:12.801Z,18.10
2018-07-09T05:18:42.714Z,18.20
2018-07-09T05:23:41.014Z,18.50
2018-07-09T05:26:11.025Z,18.60
2018-07-09T05:28:41.670Z,18.50
2018-07-09T05:31:11.100Z,18.60
2018-07-09T05:33:41.182Z,18.50
2018-07-09T05:36:10.580Z,18.30
2018-07-09T05:38:40.021Z,18.30
2018-07-09T05:41:10.739Z,18.40
2018-07-09T05:43:40.573Z,18.50
2018-07-09T05:46:10.682Z,18.60
2018-07-09T05:48:40.169Z,18.50
2018-07-09T05:53:38.453Z,18.60
2018-07-09T05:58:37.033Z,18.40
2018-07-09T06:01:07.480Z,18.40
2018-07-09T06:03:38.396Z,18.40
2018-07-09T06:06:10.131Z,18.60
2018-07-09T06:08:39.538Z,18.60
2018-07-09T06:11:09.737Z,18.70
2018-07-09T06:13:40.802Z,18.90
2018-07-09T06:16:10.173Z,18.80
2018-07-09T06:18:39.652Z,18.80
2018-07-09T06:21:09.583Z,18.80
2018-07-09T06:23:40.270Z,18.90
2018-07-09T06:26:09.732Z,19.10
2018-07-09T06:28:39.409Z,19.20
2018-07-09T06:31:08.878Z,19.20
2018-07-09T06:33:40.922Z,19.40
2018-07-09T06:36:10.525Z,19.50
2018-07-09T06:38:39.924Z,19.30
2018-07-09T06:41:09.250Z,19.30
2018-07-09T06:43:38.676Z,19.40
2018-07-09T06:48:37.112Z,19.90
2018-07-09T06:51:06.872Z,20.00
2018-07-09T06:53:37.012Z,20.20
2018-07-09T06:58:35.582Z,20.00
2018-07-09T07:06:03.335Z,20.00
2018-07-09T07:08:33.310Z,19.90
2018-07-09T07:11:03.406Z,20.10
2018-07-09T07:13:35.725Z,20.20
2018-07-09T07:16:05.174Z,20.30
2018-07-09T07:18:34.615Z,20.50
2018-07-09T07:23:32.909Z,20.60
2018-07-09T07:26:02.455Z,20.50
2018-07-09T07:28:32.022Z,20.50
2018-07-09T07:36:00.264Z,20.80
2018-07-09T07:38:29.661Z,21.00
2018-07-09T07:40:59.179Z,20.90
2018-07-09T07:43:29.101Z,20.90
2018-07-09T07:45:58.561Z,20.80
2018-07-09T07:50:58.043Z,21.10
2018-07-09T07:53:27.501Z,21.30
2018-07-09T07:55:56.992Z,21.40
2018-07-09T07:58:26.431Z,21.40
2018-07-09T08:00:55.845Z,21.40
2018-07-09T08:03:25.149Z,21.10
2018-07-09T08:05:54.514Z,20.90
2018-07-09T08:08:24.087Z,20.90
2018-07-09T08:10:53.614Z,21.10
2018-07-09T08:13:29.426Z,21.20
2018-07-09T08:15:52.581Z,21.10
2018-07-09T08:18:22.073Z,20.90
2018-07-09T08:20:51.445Z,20.90
2018-07-09T08:23:21.007Z,21.00
2018-07-09T08:28:19.254Z,21.30
2018-07-09T08:30:48.644Z,21.40
2018-07-09T08:33:18.147Z,21.50
2018-07-09T08:35:47.673Z,21.60
2018-07-09T08:38:17.647Z,21.50
2018-07-09T08:40:47.065Z,21.60
2018-07-09T08:43:20.537Z,21.60
2018-07-09T08:48:18.960Z,22.00
2018-07-09T08:50:48.748Z,22.00
2018-07-09T08:55:47.142Z,22.50
2018-07-09T08:58:16.732Z,22.50
2018-07-09T09:00:47.085Z,22.40
2018-07-09T09:03:17.130Z,22.10
2018-07-09T09:05:46.562Z,22.20
2018-07-09T09:10:45.105Z,22.30
2018-07-09T09:13:15.074Z,22.40
2018-07-09T09:15:44.806Z,22.30
2018-07-09T09:20:43.186Z,22.60
2018-07-09T09:23:12.680Z,22.80
2018-07-09T09:25:42.219Z,23.20
2018-07-09T09:28:11.804Z,23.70
2018-07-09T09:33:10.510Z,24.30
2018-07-09T09:35:39.905Z,23.90
2018-07-09T09:38:09.235Z,23.80
2018-07-09T09:40:39.240Z,24.00
2018-07-09T09:45:45.502Z,23.70
2018-07-09T09:51:13.232Z,23.90
2018-07-09T09:53:43.547Z,23.80
2018-07-09T09:56:24.886Z,23.30
2018-07-09T09:58:55.222Z,23.00
2018-07-09T10:01:25.058Z,23.00
2018-07-09T10:03:54.502Z,22.90
2018-07-09T10:06:23.979Z,22.70
2018-07-09T10:08:53.382Z,22.50
2018-07-09T10:11:22.767Z,22.50
2018-07-09T10:13:52.779Z,22.30
2018-07-09T10:16:22.884Z,22.10
2018-07-09T10:23:50.179Z,22.40
2018-07-09T10:26:19.879Z,22.40
2018-07-09T10:28:49.464Z,22.30
2018-07-09T10:31:18.929Z,22.60
2018-07-09T10:33:48.457Z,22.60
2018-07-09T10:36:17.860Z,22.80
2018-07-09T10:38:47.445Z,23.00
2018-07-09T10:41:17.458Z,23.00
2018-07-09T10:43:47.584Z,23.00
2018-07-09T10:46:16.992Z,22.70
2018-07-09T10:48:46.453Z,22.70
2018-07-09T10:51:15.911Z,22.40
2018-07-09T10:53:45.397Z,22.30
2018-07-09T10:56:14.800Z,22.30
2018-07-09T10:58:44.287Z,22.10
2018-07-09T11:01:13.873Z,22.20
2018-07-09T11:03:43.204Z,22.00
2018-07-09T11:06:12.638Z,21.90
2018-07-09T11:08:42.153Z,21.80
2018-07-09T11:11:11.611Z,21.80
2018-07-09T11:13:41.604Z,21.90
2018-07-09T11:16:11.094Z,22.00
2018-07-09T11:21:09.586Z,22.40
2018-07-09T11:23:40.308Z,22.60
2018-07-09T11:26:09.877Z,22.90
2018-07-09T11:28:39.386Z,23.30
2018-07-09T11:31:08.841Z,23.50
2018-07-09T11:33:38.704Z,23.30
2018-07-09T11:36:08.275Z,23.70
2018-07-09T11:38:37.727Z,24.00
2018-07-09T11:41:07.148Z,24.00
2018-07-09T11:46:05.522Z,24.00
2018-07-09T11:48:35.797Z,24.20
2018-07-09T11:51:05.275Z,24.00
2018-07-09T11:56:03.856Z,24.70
2018-07-09T11:58:34.245Z,24.70
2018-07-09T12:01:03.776Z,25.10
2018-07-09T12:03:33.227Z,25.30
2018-07-09T12:06:02.549Z,25.50
2018-07-09T12:08:32.062Z,25.40
2018-07-09T12:11:01.486Z,25.30
2018-07-09T12:13:30.842Z,25.50
2018-07-09T12:16:00.197Z,25.90
2018-07-09T12:18:29.631Z,25.50
2018-07-09T12:20:59.080Z,25.30
2018-07-09T12:23:28.544Z,25.20
2018-07-09T12:25:58.360Z,25.20
2018-07-09T12:28:27.827Z,24.90
2018-07-09T12:30:57.239Z,24.60
2018-07-09T12:35:55.476Z,24.60
2018-07-09T12:38:25.243Z,24.20
2018-07-09T12:40:54.682Z,23.90
2018-07-09T12:43:24.069Z,23.70
2018-07-09T12:45:54.089Z,23.70
2018-07-09T12:48:23.573Z,23.60
2018-07-09T12:50:52.938Z,23.80
2018-07-09T12:53:22.871Z,23.60
2018-07-09T12:55:52.296Z,23.40
2018-07-09T12:58:21.612Z,23.40
2018-07-09T13:00:50.985Z,23.60
2018-07-09T13:03:20.461Z,23.90
2018-07-09T13:05:50.824Z,25.30
2018-07-09T13:08:20.875Z,25.60
2018-07-09T13:10:50.310Z,25.50
2018-07-09T13:13:20.071Z,25.00
2018-07-09T13:15:49.602Z,26.00
2018-07-09T13:18:18.983Z,26.50
2018-07-09T13:20:48.268Z,26.60
2018-07-09T13:30:45.152Z,25.30
2018-07-09T13:35:43.443Z,26.80
2018-07-09T13:38:13.403Z,26.70
2018-07-09T13:40:42.833Z,26.20
2018-07-09T13:43:12.205Z,25.40
2018-07-09T13:45:41.601Z,25.20
2018-07-09T13:48:11.061Z,24.90
2018-07-09T13:53:09.342Z,24.60
2018-07-09T13:55:39.054Z,24.40
2018-07-09T14:03:06.465Z,23.80
2018-07-09T14:05:35.921Z,23.90
2018-07-09T14:08:05.472Z,24.80
2018-07-09T14:10:35.433Z,25.10
2018-07-09T14:15:33.813Z,24.30
2018-07-09T14:18:03.812Z,23.90
2018-07-09T14:20:34.445Z,23.70
2018-07-09T14:23:04.801Z,23.60
2018-07-09T14:25:34.235Z,23.40
2018-07-09T14:28:03.770Z,23.30
2018-07-09T14:33:06.674Z,23.30
2018-07-09T14:35:37.464Z,23.80
2018-07-09T14:38:07.750Z,24.30
2018-07-09T14:40:37.828Z,24.10
2018-07-09T14:45:36.333Z,25.00
2018-07-09T14:48:05.744Z,26.80
2018-07-09T14:50:35.068Z,27.60
2018-07-09T14:53:05.106Z,27.50
2018-07-09T14:55:34.509Z,26.20
2018-07-09T14:58:04.125Z,25.50
2018-07-09T15:00:33.702Z,24.80
2018-07-09T15:03:03.228Z,24.50
2018-07-09T15:05:33.045Z,25.40
2018-07-09T15:08:03.418Z,26.10
2018-07-09T15:10:34.319Z,26.20
2018-07-09T15:13:03.777Z,26.80
2018-07-09T15:15:33.168Z,28.40
2018-07-09T15:18:03.104Z,29.30
2018-07-09T15:20:32.522Z,28.90
2018-07-09T15:23:03.354Z,28.20
2018-07-09T15:25:32.739Z,27.60
2018-07-09T15:28:02.154Z,26.80
2018-07-09T15:30:32.329Z,26.10
2018-07-09T15:33:01.681Z,25.30
2018-07-09T15:35:31.111Z,25.00
2018-07-09T15:40:29.819Z,25.60
2018-07-09T15:45:30.277Z,26.10
2018-07-09T15:48:00.945Z,26.30
2018-07-09T15:50:30.312Z,26.80
2018-07-09T15:52:59.773Z,27.10
2018-07-09T15:55:30.066Z,27.40
2018-07-09T15:57:59.658Z,27.30
2018-07-09T16:00:29.142Z,27.80
2018-07-09T16:02:58.635Z,28.50
2018-07-09T16:07:56.908Z,28.30
2018-07-09T16:12:55.811Z,27.90
2018-07-09T16:15:25.162Z,27.50
2018-07-09T16:17:54.529Z,27.00
2018-07-09T16:22:52.867Z,26.50
2018-07-09T16:25:22.920Z,26.20
2018-07-09T16:27:52.399Z,25.80
2018-07-09T16:30:22.162Z,25.60
2018-07-09T16:35:24.416Z,25.70
2018-07-09T16:38:04.726Z,26.20
2018-07-09T16:40:41.921Z,26.00
2018-07-09T16:43:12.895Z,25.50
2018-07-09T16:45:42.265Z,25.40
2018-07-09T16:48:12.432Z,25.40
2018-07-09T16:50:43.215Z,25.20
2018-07-09T16:53:13.446Z,25.10
2018-07-09T16:55:42.904Z,24.90
2018-07-09T17:00:42.045Z,24.60
2018-07-09T17:49:29.953Z,24.50
2018-07-09T17:51:59.371Z,23.50
2018-07-09T17:54:28.923Z,23.40
2018-07-09T17:56:58.519Z,23.30
2018-07-09T17:59:27.857Z,23.10
2018-07-09T18:04:26.764Z,22.90
2018-07-09T18:09:25.908Z,22.60
2018-07-09T18:11:55.310Z,22.60
2018-07-09T18:14:26.736Z,22.50
2018-07-09T18:16:59.525Z,22.30
2018-07-09T18:19:29.295Z,22.20
2018-07-09T18:21:59.286Z,22.10
2018-07-09T18:24:29.784Z,21.90
2018-07-09T18:27:00.999Z,21.90
2018-07-09T18:32:00.159Z,21.60
2018-07-09T18:34:30.113Z,21.60
2018-07-09T18:39:29.246Z,21.30
2018-07-09T18:44:30.557Z,21.00
2018-07-09T18:47:00.075Z,20.90
2018-07-09T18:49:29.647Z,20.80
2018-07-09T18:51:59.640Z,20.70
2018-07-09T18:54:29.343Z,20.70
2018-07-09T19:02:00.177Z,20.50
2018-07-09T19:04:29.788Z,20.50
2018-07-09T19:07:03.365Z,20.30
2018-07-09T19:09:34.521Z,20.30
2018-07-09T19:12:11.873Z,20.30
2018-07-09T19:14:44.186Z,20.30
2018-07-09T19:17:56.122Z,20.20
2018-07-09T19:20:37.613Z,20.20
2018-07-09T19:23:15.476Z,20.10
2018-07-09T19:25:43.951Z,20.00
2018-07-09T19:28:12.482Z,19.90
2018-07-09T19:30:41.456Z,19.90
2018-07-09T19:35:39.692Z,19.70
2018-07-09T19:38:08.999Z,19.70
2018-07-09T19:40:38.207Z,19.70
2018-07-09T19:43:06.528Z,19.60
2018-07-09T19:45:34.857Z,19.60
2018-07-09T19:48:03.175Z,19.50
2018-07-09T19:50:31.408Z,19.40
2018-07-09T19:53:00.882Z,19.40
2018-07-09T19:55:29.188Z,19.30
2018-07-09T19:57:57.462Z,19.30
2018-07-09T20:00:26.340Z,19.30
2018-07-09T20:02:58.875Z,19.20
2018-07-09T20:05:27.218Z,19.10
2018-07-09T20:07:55.477Z,19.10
2018-07-09T20:10:32.910Z,19.00
2018-07-09T20:13:09.733Z,19.00
2018-07-09T20:15:43.307Z,18.90
2018-07-09T20:18:11.520Z,18.90
2018-07-09T20:20:39.801Z,18.80
2018-07-09T20:23:09.864Z,18.80
2018-07-09T20:25:38.145Z,18.70
2018-07-09T20:28:06.498Z,18.70
2018-07-09T20:30:34.681Z,18.60
2018-07-09T20:33:02.921Z,18.60
2018-07-09T20:35:31.149Z,18.50
2018-07-09T20:38:00.241Z,18.40
2018-07-09T20:40:28.411Z,18.40
2018-07-09T20:42:56.742Z,18.40
2018-07-09T20:45:24.936Z,18.30
2018-07-09T20:50:21.487Z,18.20
2018-07-09T20:52:50.734Z,18.10
2018-07-09T20:57:47.750Z,18.00
2018-07-09T21:00:16.058Z,18.00
2018-07-09T21:02:44.375Z,17.90
2018-07-09T21:10:10.021Z,17.80
2018-07-09T21:15:12.096Z,17.60
2018-07-09T21:20:08.520Z,17.60
2018-07-09T21:22:36.985Z,17.50
2018-07-09T21:25:05.637Z,17.50
2018-07-09T21:32:31.229Z,17.40
2018-07-09T21:34:59.493Z,17.40
2018-07-09T21:37:27.748Z,17.40
2018-07-09T21:39:56.000Z,17.40
2018-07-09T21:44:52.633Z,17.30
2018-07-09T21:47:20.880Z,17.30
2018-07-09T21:49:49.036Z,17.30
2018-07-09T21:52:17.311Z,17.30
2018-07-09T21:54:45.527Z,17.30
2018-07-09T21:57:13.727Z,17.30
2018-07-09T21:59:42.606Z,17.20
2018-07-09T22:04:39.245Z,17.20
2018-07-09T22:07:07.473Z,17.20
2018-07-09T22:09:35.747Z,17.20
2018-07-09T22:12:03.955Z,17.20
2018-07-09T22:14:32.166Z,17.20
2018-07-09T22:19:28.791Z,17.20
2018-07-09T22:21:57.177Z,17.20
2018-07-09T22:24:25.449Z,17.20
2018-07-09T22:29:22.061Z,17.20
2018-07-09T22:31:51.570Z,17.20
2018-07-09T22:34:21.809Z,17.10
2018-07-09T22:36:51.491Z,17.10
2018-07-09T22:39:20.891Z,17.10
2018-07-09T22:41:50.446Z,17.10
2018-07-09T22:44:21.967Z,17.00
2018-07-09T22:46:51.415Z,17.00
2018-07-09T22:49:20.952Z,17.00
2018-07-09T22:51:50.478Z,17.00
2018-07-09T22:54:20.726Z,17.00
2018-07-09T22:56:50.267Z,17.00
2018-07-09T23:01:48.622Z,17.00
2018-07-09T23:04:18.061Z,17.00
2018-07-09T23:06:47.525Z,17.00
2018-07-09T23:11:36.386Z,17.00
2018-07-09T23:16:21.744Z,17.00
2018-07-09T23:19:02.703Z,17.00
2018-07-09T23:24:05.797Z,17.00
2018-07-09T23:26:34.052Z,17.00
2018-07-09T23:29:03.059Z,17.00
2018-07-09T23:33:59.913Z,17.00
2018-07-09T23:36:28.248Z,17.00
2018-07-09T23:41:24.831Z,16.90
2018-07-09T23:43:53.061Z,17.00
2018-07-09T23:46:21.268Z,16.90
2018-07-09T23:48:49.531Z,16.90
2018-07-09T23:51:19.106Z,16.90
2018-07-09T23:53:48.154Z,16.90
2018-07-09T23:59:30.459Z,17.00
